sensor_id;sensor_type;location;lat;lon;timestamp;P1;durP1;ratioP1;P2;durP2;ratioP2
38479;SDS011;62333;51.980;5.934;2023-06-22T00:02:16;1.67;;;0.85;;
38479;SDS011;62333;51.980;5.934;2023-06-22T00:04:43;1.75;;;0.80;;
38479;SDS011;62333;51.980;5.934;2023-06-22T00:07:08;1.30;;;0.70;;
38479;SDS011;62333;51.980;5.934;2023-06-22T00:09:34;1.98;;;0.90;;
38479;SDS011;62333;51.980;5.934;2023-06-22T00:12:01;1.75;;;0.43;;
38479;SDS011;62333;51.980;5.934;2023-06-22T00:14:26;1.15;;;0.40;;
38479;SDS011;62333;51.980;5.934;2023-06-22T00:16:52;1.58;;;0.55;;
38479;SDS011;62333;51.980;5.934;2023-06-22T00:19:22;1.38;;;0.50;;
38479;SDS011;62333;51.980;5.934;2023-06-22T00:21:48;0.93;;;0.45;;
38479;SDS011;62333;51.980;5.934;2023-06-22T00:24:21;2.47;;;0.85;;
38479;SDS011;62333;51.980;5.934;2023-06-22T00:26:47;1.75;;;0.70;;
38479;SDS011;62333;51.980;5.934;2023-06-22T00:29:13;1.25;;;0.50;;
38479;SDS011;62333;51.980;5.934;2023-06-22T00:31:39;2.05;;;0.43;;
38479;SDS011;62333;51.980;5.934;2023-06-22T00:34:05;1.77;;;0.60;;
38479;SDS011;62333;51.980;5.934;2023-06-22T00:36:31;2.90;;;0.47;;
38479;SDS011;62333;51.980;5.934;2023-06-22T00:38:57;0.88;;;0.40;;
38479;SDS011;62333;51.980;5.934;2023-06-22T00:41:23;4.53;;;0.75;;
38479;SDS011;62333;51.980;5.934;2023-06-22T00:43:48;2.05;;;0.70;;
38479;SDS011;62333;51.980;5.934;2023-06-22T00:46:14;1.48;;;0.50;;
38479;SDS011;62333;51.980;5.934;2023-06-22T00:48:40;1.15;;;0.55;;
38479;SDS011;62333;51.980;5.934;2023-06-22T00:51:09;3.05;;;0.98;;
38479;SDS011;62333;51.980;5.934;2023-06-22T00:53:35;5.22;;;0.70;;
38479;SDS011;62333;51.980;5.934;2023-06-22T00:56:02;1.58;;;0.55;;
38479;SDS011;62333;51.980;5.934;2023-06-22T00:58:28;2.13;;;0.88;;
38479;SDS011;62333;51.980;5.934;2023-06-22T01:00:55;1.85;;;0.65;;
38479;SDS011;62333;51.980;5.934;2023-06-22T01:03:21;3.30;;;0.50;;
38479;SDS011;62333;51.980;5.934;2023-06-22T01:05:47;1.25;;;0.70;;
38479;SDS011;62333;51.980;5.934;2023-06-22T01:13:37;2.60;;;0.70;;
38479;SDS011;62333;51.980;5.934;2023-06-22T01:16:20;1.85;;;0.80;;
38479;SDS011;62333;51.980;5.934;2023-06-22T01:19:06;3.05;;;0.60;;
38479;SDS011;62333;51.980;5.934;2023-06-22T01:21:49;1.88;;;0.60;;
38479;SDS011;62333;51.980;5.934;2023-06-22T01:29:36;2.17;;;0.63;;
38479;SDS011;62333;51.980;5.934;2023-06-22T01:32:04;2.20;;;0.60;;
38479;SDS011;62333;51.980;5.934;2023-06-22T01:34:31;2.65;;;0.50;;
38479;SDS011;62333;51.980;5.934;2023-06-22T01:36:58;2.60;;;0.88;;
38479;SDS011;62333;51.980;5.934;2023-06-22T01:39:26;1.42;;;0.60;;
38479;SDS011;62333;51.980;5.934;2023-06-22T01:41:52;1.55;;;0.63;;
38479;SDS011;62333;51.980;5.934;2023-06-22T01:44:19;1.40;;;0.50;;
38479;SDS011;62333;51.980;5.934;2023-06-22T01:46:46;1.00;;;0.40;;
38479;SDS011;62333;51.980;5.934;2023-06-22T01:49:14;1.42;;;0.77;;
38479;SDS011;62333;51.980;5.934;2023-06-22T01:51:40;2.53;;;0.45;;
38479;SDS011;62333;51.980;5.934;2023-06-22T01:54:06;1.92;;;0.80;;
38479;SDS011;62333;51.980;5.934;2023-06-22T01:56:33;2.17;;;0.77;;
38479;SDS011;62333;51.980;5.934;2023-06-22T02:01:54;2.97;;;1.13;;
38479;SDS011;62333;51.980;5.934;2023-06-22T02:04:29;1.50;;;0.73;;
38479;SDS011;62333;51.980;5.934;2023-06-22T02:07:20;1.63;;;0.70;;
38479;SDS011;62333;51.980;5.934;2023-06-22T02:09:49;2.28;;;0.80;;
38479;SDS011;62333;51.980;5.934;2023-06-22T02:12:18;1.80;;;0.70;;
38479;SDS011;62333;51.980;5.934;2023-06-22T02:14:48;1.83;;;0.73;;
38479;SDS011;62333;51.980;5.934;2023-06-22T02:17:17;3.83;;;0.77;;
38479;SDS011;62333;51.980;5.934;2023-06-22T02:19:43;2.30;;;0.75;;
38479;SDS011;62333;51.980;5.934;2023-06-22T02:22:09;2.03;;;0.80;;
38479;SDS011;62333;51.980;5.934;2023-06-22T02:24:34;2.97;;;1.00;;
38479;SDS011;62333;51.980;5.934;2023-06-22T02:27:00;2.95;;;1.00;;
38479;SDS011;62333;51.980;5.934;2023-06-22T02:29:27;2.22;;;0.85;;
38479;SDS011;62333;51.980;5.934;2023-06-22T02:31:53;3.15;;;1.15;;
38479;SDS011;62333;51.980;5.934;2023-06-22T02:34:20;1.85;;;0.63;;
38479;SDS011;62333;51.980;5.934;2023-06-22T02:36:49;3.05;;;1.00;;
38479;SDS011;62333;51.980;5.934;2023-06-22T02:39:24;2.40;;;0.77;;
38479;SDS011;62333;51.980;5.934;2023-06-22T02:41:50;2.33;;;0.98;;
38479;SDS011;62333;51.980;5.934;2023-06-22T02:44:17;2.33;;;1.10;;
38479;SDS011;62333;51.980;5.934;2023-06-22T02:46:43;3.22;;;1.17;;
38479;SDS011;62333;51.980;5.934;2023-06-22T02:49:10;2.72;;;1.33;;
38479;SDS011;62333;51.980;5.934;2023-06-22T02:51:37;2.10;;;0.90;;
38479;SDS011;62333;51.980;5.934;2023-06-22T02:54:04;4.05;;;1.08;;
38479;SDS011;62333;51.980;5.934;2023-06-22T02:56:30;6.65;;;1.80;;
38479;SDS011;62333;51.980;5.934;2023-06-22T02:58:56;4.15;;;1.50;;
38479;SDS011;62333;51.980;5.934;2023-06-22T03:01:29;7.47;;;2.30;;
38479;SDS011;62333;51.980;5.934;2023-06-22T03:04:03;3.00;;;1.40;;
38479;SDS011;62333;51.980;5.934;2023-06-22T03:06:29;3.05;;;1.88;;
38479;SDS011;62333;51.980;5.934;2023-06-22T03:09:02;4.68;;;1.42;;
38479;SDS011;62333;51.980;5.934;2023-06-22T03:11:33;3.70;;;1.73;;
38479;SDS011;62333;51.980;5.934;2023-06-22T03:13:59;3.67;;;2.00;;
38479;SDS011;62333;51.980;5.934;2023-06-22T03:16:26;3.22;;;1.52;;
38479;SDS011;62333;51.980;5.934;2023-06-22T03:18:52;2.88;;;1.58;;
38479;SDS011;62333;51.980;5.934;2023-06-22T03:21:21;3.63;;;1.63;;
38479;SDS011;62333;51.980;5.934;2023-06-22T03:23:48;3.38;;;1.90;;
38479;SDS011;62333;51.980;5.934;2023-06-22T03:26:16;4.00;;;1.92;;
38479;SDS011;62333;51.980;5.934;2023-06-22T03:28:42;3.97;;;2.38;;
38479;SDS011;62333;51.980;5.934;2023-06-22T03:31:08;3.05;;;1.67;;
38479;SDS011;62333;51.980;5.934;2023-06-22T03:33:34;3.88;;;1.58;;
38479;SDS011;62333;51.980;5.934;2023-06-22T03:36:00;4.22;;;2.50;;
38479;SDS011;62333;51.980;5.934;2023-06-22T03:38:26;5.90;;;3.15;;
38479;SDS011;62333;51.980;5.934;2023-06-22T03:40:51;5.40;;;2.58;;
38479;SDS011;62333;51.980;5.934;2023-06-22T03:43:17;4.82;;;2.00;;
38479;SDS011;62333;51.980;5.934;2023-06-22T03:45:43;5.55;;;2.28;;
38479;SDS011;62333;51.980;5.934;2023-06-22T03:48:10;5.90;;;2.55;;
38479;SDS011;62333;51.980;5.934;2023-06-22T03:50:36;3.83;;;2.63;;
38479;SDS011;62333;51.980;5.934;2023-06-22T03:53:02;6.80;;;3.13;;
38479;SDS011;62333;51.980;5.934;2023-06-22T03:55:28;6.55;;;3.85;;
38479;SDS011;62333;51.980;5.934;2023-06-22T03:57:53;7.40;;;3.65;;
38479;SDS011;62333;51.980;5.934;2023-06-22T04:00:22;6.38;;;3.20;;
38479;SDS011;62333;51.980;5.934;2023-06-22T04:02:48;6.45;;;3.42;;
38479;SDS011;62333;51.980;5.934;2023-06-22T04:05:14;6.78;;;3.85;;
38479;SDS011;62333;51.980;5.934;2023-06-22T04:07:39;7.68;;;4.65;;
38479;SDS011;62333;51.980;5.934;2023-06-22T04:10:05;7.07;;;3.90;;
38479;SDS011;62333;51.980;5.934;2023-06-22T04:12:31;5.47;;;3.53;;
38479;SDS011;62333;51.980;5.934;2023-06-22T04:14:57;5.40;;;3.33;;
38479;SDS011;62333;51.980;5.934;2023-06-22T04:17:23;7.43;;;4.03;;
38479;SDS011;62333;51.980;5.934;2023-06-22T04:19:50;6.40;;;4.45;;
38479;SDS011;62333;51.980;5.934;2023-06-22T04:22:16;6.00;;;4.45;;
38479;SDS011;62333;51.980;5.934;2023-06-22T04:24:42;7.00;;;4.28;;
38479;SDS011;62333;51.980;5.934;2023-06-22T04:27:08;6.03;;;4.45;;
38479;SDS011;62333;51.980;5.934;2023-06-22T04:29:34;10.43;;;6.25;;
38479;SDS011;62333;51.980;5.934;2023-06-22T04:32:00;8.75;;;5.05;;
38479;SDS011;62333;51.980;5.934;2023-06-22T04:34:30;8.73;;;6.45;;
38479;SDS011;62333;51.980;5.934;2023-06-22T04:36:56;8.27;;;5.82;;
38479;SDS011;62333;51.980;5.934;2023-06-22T04:39:22;7.50;;;6.07;;
38479;SDS011;62333;51.980;5.934;2023-06-22T04:41:48;6.80;;;5.35;;
38479;SDS011;62333;51.980;5.934;2023-06-22T04:44:16;7.45;;;5.90;;
38479;SDS011;62333;51.980;5.934;2023-06-22T04:46:49;9.57;;;6.07;;
38479;SDS011;62333;51.980;5.934;2023-06-22T04:49:19;7.55;;;6.78;;
38479;SDS011;62333;51.980;5.934;2023-06-22T04:51:46;8.95;;;6.40;;
38479;SDS011;62333;51.980;5.934;2023-06-22T04:54:11;9.95;;;7.05;;
38479;SDS011;62333;51.980;5.934;2023-06-22T04:56:37;5.85;;;4.45;;
38479;SDS011;62333;51.980;5.934;2023-06-22T04:59:06;9.10;;;6.32;;
38479;SDS011;62333;51.980;5.934;2023-06-22T05:01:32;9.30;;;7.35;;
38479;SDS011;62333;51.980;5.934;2023-06-22T05:04:00;9.25;;;7.65;;
38479;SDS011;62333;51.980;5.934;2023-06-22T05:06:26;10.15;;;8.15;;
38479;SDS011;62333;51.980;5.934;2023-06-22T05:08:56;9.77;;;7.72;;
38479;SDS011;62333;51.980;5.934;2023-06-22T05:11:28;8.63;;;6.90;;
38479;SDS011;62333;51.980;5.934;2023-06-22T05:13:54;8.25;;;6.63;;
38479;SDS011;62333;51.980;5.934;2023-06-22T05:16:20;7.65;;;5.75;;
38479;SDS011;62333;51.980;5.934;2023-06-22T05:18:49;9.35;;;6.50;;
38479;SDS011;62333;51.980;5.934;2023-06-22T05:21:17;8.27;;;6.93;;
38479;SDS011;62333;51.980;5.934;2023-06-22T05:23:42;9.75;;;6.00;;
38479;SDS011;62333;51.980;5.934;2023-06-22T05:26:08;8.10;;;6.22;;
38479;SDS011;62333;51.980;5.934;2023-06-22T05:28:35;9.10;;;7.20;;
38479;SDS011;62333;51.980;5.934;2023-06-22T05:31:00;7.72;;;5.20;;
38479;SDS011;62333;51.980;5.934;2023-06-22T05:33:26;7.18;;;5.28;;
38479;SDS011;62333;51.980;5.934;2023-06-22T05:35:52;7.18;;;5.70;;
38479;SDS011;62333;51.980;5.934;2023-06-22T05:38:17;14.15;;;8.60;;
38479;SDS011;62333;51.980;5.934;2023-06-22T05:40:43;9.70;;;8.35;;
38479;SDS011;62333;51.980;5.934;2023-06-22T05:43:09;7.38;;;6.47;;
38479;SDS011;62333;51.980;5.934;2023-06-22T05:45:34;8.85;;;5.43;;
38479;SDS011;62333;51.980;5.934;2023-06-22T05:48:00;7.88;;;6.50;;
38479;SDS011;62333;51.980;5.934;2023-06-22T05:50:26;9.35;;;6.85;;
38479;SDS011;62333;51.980;5.934;2023-06-22T05:52:52;12.48;;;7.20;;
38479;SDS011;62333;51.980;5.934;2023-06-22T05:55:17;6.75;;;5.32;;
38479;SDS011;62333;51.980;5.934;2023-06-22T05:57:44;8.82;;;6.07;;
38479;SDS011;62333;51.980;5.934;2023-06-22T06:00:10;5.32;;;4.20;;
38479;SDS011;62333;51.980;5.934;2023-06-22T06:02:36;7.07;;;5.70;;
38479;SDS011;62333;51.980;5.934;2023-06-22T06:05:09;5.75;;;4.18;;
38479;SDS011;62333;51.980;5.934;2023-06-22T06:07:35;5.75;;;4.20;;
38479;SDS011;62333;51.980;5.934;2023-06-22T06:10:02;6.68;;;4.07;;
38479;SDS011;62333;51.980;5.934;2023-06-22T06:12:29;7.15;;;5.32;;
38479;SDS011;62333;51.980;5.934;2023-06-22T06:14:55;9.00;;;5.72;;
38479;SDS011;62333;51.980;5.934;2023-06-22T06:17:21;6.63;;;4.55;;
38479;SDS011;62333;51.980;5.934;2023-06-22T06:19:47;6.32;;;5.05;;
38479;SDS011;62333;51.980;5.934;2023-06-22T06:22:12;5.80;;;4.38;;
38479;SDS011;62333;51.980;5.934;2023-06-22T06:24:38;6.47;;;4.25;;
38479;SDS011;62333;51.980;5.934;2023-06-22T06:27:04;9.82;;;6.05;;
38479;SDS011;62333;51.980;5.934;2023-06-22T06:29:30;7.45;;;5.60;;
38479;SDS011;62333;51.980;5.934;2023-06-22T06:31:56;11.00;;;6.35;;
38479;SDS011;62333;51.980;5.934;2023-06-22T06:34:22;8.30;;;5.43;;
38479;SDS011;62333;51.980;5.934;2023-06-22T06:36:48;7.22;;;5.25;;
38479;SDS011;62333;51.980;5.934;2023-06-22T06:39:13;6.05;;;4.30;;
38479;SDS011;62333;51.980;5.934;2023-06-22T06:41:39;9.82;;;5.95;;
38479;SDS011;62333;51.980;5.934;2023-06-22T06:44:05;5.25;;;4.47;;
38479;SDS011;62333;51.980;5.934;2023-06-22T06:46:30;5.90;;;3.92;;
38479;SDS011;62333;51.980;5.934;2023-06-22T06:48:56;7.57;;;5.47;;
38479;SDS011;62333;51.980;5.934;2023-06-22T06:51:22;7.68;;;5.03;;
38479;SDS011;62333;51.980;5.934;2023-06-22T06:53:47;7.07;;;4.35;;
38479;SDS011;62333;51.980;5.934;2023-06-22T06:56:13;6.05;;;4.00;;
38479;SDS011;62333;51.980;5.934;2023-06-22T06:58:42;6.22;;;3.90;;
38479;SDS011;62333;51.980;5.934;2023-06-22T07:01:08;4.82;;;4.22;;
38479;SDS011;62333;51.980;5.934;2023-06-22T07:03:33;6.75;;;4.15;;
38479;SDS011;62333;51.980;5.934;2023-06-22T07:05:59;5.50;;;3.88;;
38479;SDS011;62333;51.980;5.934;2023-06-22T07:08:25;4.88;;;3.72;;
38479;SDS011;62333;51.980;5.934;2023-06-22T07:10:51;6.10;;;4.47;;
38479;SDS011;62333;51.980;5.934;2023-06-22T07:13:17;4.50;;;3.53;;
38479;SDS011;62333;51.980;5.934;2023-06-22T07:15:43;5.55;;;4.07;;
38479;SDS011;62333;51.980;5.934;2023-06-22T07:18:09;4.13;;;2.65;;
38479;SDS011;62333;51.980;5.934;2023-06-22T07:20:34;4.10;;;3.28;;
38479;SDS011;62333;51.980;5.934;2023-06-22T07:23:00;5.88;;;4.28;;
38479;SDS011;62333;51.980;5.934;2023-06-22T07:25:26;4.78;;;3.03;;
38479;SDS011;62333;51.980;5.934;2023-06-22T07:28:26;6.95;;;4.13;;
38479;SDS011;62333;51.980;5.934;2023-06-22T07:30:44;5.00;;;3.40;;
38479;SDS011;62333;51.980;5.934;2023-06-22T07:33:11;4.53;;;3.08;;
38479;SDS011;62333;51.980;5.934;2023-06-22T07:35:37;5.07;;;2.95;;
38479;SDS011;62333;51.980;5.934;2023-06-22T07:38:02;6.63;;;3.10;;
38479;SDS011;62333;51.980;5.934;2023-06-22T07:40:28;4.85;;;3.53;;
38479;SDS011;62333;51.980;5.934;2023-06-22T07:42:54;5.50;;;2.83;;
38479;SDS011;62333;51.980;5.934;2023-06-22T07:45:20;4.30;;;2.90;;
38479;SDS011;62333;51.980;5.934;2023-06-22T07:47:46;5.30;;;3.72;;
38479;SDS011;62333;51.980;5.934;2023-06-22T07:50:11;7.50;;;3.58;;
38479;SDS011;62333;51.980;5.934;2023-06-22T07:52:37;6.18;;;3.30;;
38479;SDS011;62333;51.980;5.934;2023-06-22T07:55:02;6.10;;;3.15;;
38479;SDS011;62333;51.980;5.934;2023-06-22T07:57:29;5.63;;;3.67;;
38479;SDS011;62333;51.980;5.934;2023-06-22T08:00:02;4.18;;;2.15;;
38479;SDS011;62333;51.980;5.934;2023-06-22T08:02:40;4.30;;;3.08;;
38479;SDS011;62333;51.980;5.934;2023-06-22T08:05:08;4.10;;;2.33;;
38479;SDS011;62333;51.980;5.934;2023-06-22T08:07:35;6.35;;;3.03;;
38479;SDS011;62333;51.980;5.934;2023-06-22T08:10:02;5.20;;;3.47;;
38479;SDS011;62333;51.980;5.934;2023-06-22T08:12:29;5.10;;;3.20;;
38479;SDS011;62333;51.980;5.934;2023-06-22T08:14:55;4.55;;;2.85;;
38479;SDS011;62333;51.980;5.934;2023-06-22T08:17:21;5.63;;;2.90;;
38479;SDS011;62333;51.980;5.934;2023-06-22T08:19:48;6.63;;;3.85;;
38479;SDS011;62333;51.980;5.934;2023-06-22T08:22:13;4.78;;;2.90;;
38479;SDS011;62333;51.980;5.934;2023-06-22T08:24:40;5.50;;;3.05;;
38479;SDS011;62333;51.980;5.934;2023-06-22T08:27:09;3.55;;;2.38;;
38479;SDS011;62333;51.980;5.934;2023-06-22T08:29:39;5.43;;;2.70;;
38479;SDS011;62333;51.980;5.934;2023-06-22T08:32:08;5.10;;;1.52;;
38479;SDS011;62333;51.980;5.934;2023-06-22T08:34:34;3.78;;;2.28;;
38479;SDS011;62333;51.980;5.934;2023-06-22T08:37:01;4.95;;;2.65;;
38479;SDS011;62333;51.980;5.934;2023-06-22T08:39:31;5.00;;;3.03;;
38479;SDS011;62333;51.980;5.934;2023-06-22T08:41:57;4.05;;;1.85;;
38479;SDS011;62333;51.980;5.934;2023-06-22T08:44:22;5.43;;;3.90;;
38479;SDS011;62333;51.980;5.934;2023-06-22T08:46:48;3.55;;;1.85;;
38479;SDS011;62333;51.980;5.934;2023-06-22T08:49:14;3.80;;;1.85;;
38479;SDS011;62333;51.980;5.934;2023-06-22T08:51:40;3.80;;;1.88;;
38479;SDS011;62333;51.980;5.934;2023-06-22T08:54:05;4.13;;;1.73;;
38479;SDS011;62333;51.980;5.934;2023-06-22T08:56:31;2.55;;;1.63;;
38479;SDS011;62333;51.980;5.934;2023-06-22T08:58:57;4.15;;;2.15;;
38479;SDS011;62333;51.980;5.934;2023-06-22T09:01:22;4.10;;;1.85;;
38479;SDS011;62333;51.980;5.934;2023-06-22T09:03:48;3.08;;;1.63;;
38479;SDS011;62333;51.980;5.934;2023-06-22T09:06:20;5.18;;;2.33;;
38479;SDS011;62333;51.980;5.934;2023-06-22T09:08:46;5.60;;;2.65;;
38479;SDS011;62333;51.980;5.934;2023-06-22T09:11:13;3.53;;;1.67;;
38479;SDS011;62333;51.980;5.934;2023-06-22T09:13:39;5.38;;;2.03;;
38479;SDS011;62333;51.980;5.934;2023-06-22T09:16:04;3.22;;;1.60;;
38479;SDS011;62333;51.980;5.934;2023-06-22T09:18:30;3.63;;;1.70;;
38479;SDS011;62333;51.980;5.934;2023-06-22T09:20:56;2.03;;;1.30;;
38479;SDS011;62333;51.980;5.934;2023-06-22T09:23:21;3.17;;;1.80;;
38479;SDS011;62333;51.980;5.934;2023-06-22T09:25:47;3.70;;;1.80;;
38479;SDS011;62333;51.980;5.934;2023-06-22T09:28:13;5.22;;;2.20;;
38479;SDS011;62333;51.980;5.934;2023-06-22T09:30:39;5.47;;;3.00;;
38479;SDS011;62333;51.980;5.934;2023-06-22T09:33:05;3.65;;;2.10;;
38479;SDS011;62333;51.980;5.934;2023-06-22T09:35:30;3.70;;;2.65;;
38479;SDS011;62333;51.980;5.934;2023-06-22T09:37:56;3.38;;;2.03;;
38479;SDS011;62333;51.980;5.934;2023-06-22T09:40:22;3.92;;;1.90;;
38479;SDS011;62333;51.980;5.934;2023-06-22T09:42:47;4.88;;;2.25;;
38479;SDS011;62333;51.980;5.934;2023-06-22T09:45:13;3.47;;;1.50;;
38479;SDS011;62333;51.980;5.934;2023-06-22T09:47:39;3.65;;;1.95;;
38479;SDS011;62333;51.980;5.934;2023-06-22T09:50:05;3.25;;;1.70;;
38479;SDS011;62333;51.980;5.934;2023-06-22T09:52:31;3.83;;;1.65;;
38479;SDS011;62333;51.980;5.934;2023-06-22T09:54:56;7.80;;;2.67;;
38479;SDS011;62333;51.980;5.934;2023-06-22T09:57:22;4.85;;;2.72;;
38479;SDS011;62333;51.980;5.934;2023-06-22T09:59:48;5.25;;;2.33;;
38479;SDS011;62333;51.980;5.934;2023-06-22T10:02:13;4.80;;;2.78;;
38479;SDS011;62333;51.980;5.934;2023-06-22T10:04:39;5.30;;;2.75;;
38479;SDS011;62333;51.980;5.934;2023-06-22T10:07:05;3.30;;;1.52;;
38479;SDS011;62333;51.980;5.934;2023-06-22T10:09:31;5.97;;;1.98;;
38479;SDS011;62333;51.980;5.934;2023-06-22T10:11:57;3.58;;;1.98;;
38479;SDS011;62333;51.980;5.934;2023-06-22T10:14:22;2.85;;;1.42;;
38479;SDS011;62333;51.980;5.934;2023-06-22T10:16:49;3.78;;;1.20;;
38479;SDS011;62333;51.980;5.934;2023-06-22T10:19:16;2.42;;;1.40;;
38479;SDS011;62333;51.980;5.934;2023-06-22T10:21:41;3.67;;;1.50;;
38479;SDS011;62333;51.980;5.934;2023-06-22T10:24:07;4.70;;;1.60;;
38479;SDS011;62333;51.980;5.934;2023-06-22T10:26:33;2.75;;;0.98;;
38479;SDS011;62333;51.980;5.934;2023-06-22T10:29:00;4.75;;;1.73;;
38479;SDS011;62333;51.980;5.934;2023-06-22T10:31:27;2.85;;;1.45;;
38479;SDS011;62333;51.980;5.934;2023-06-22T10:33:53;3.38;;;1.30;;
38479;SDS011;62333;51.980;5.934;2023-06-22T10:36:19;3.00;;;1.75;;
38479;SDS011;62333;51.980;5.934;2023-06-22T10:38:44;5.50;;;1.27;;
38479;SDS011;62333;51.980;5.934;2023-06-22T10:41:12;2.80;;;1.23;;
38479;SDS011;62333;51.980;5.934;2023-06-22T10:43:37;4.43;;;2.00;;
38479;SDS011;62333;51.980;5.934;2023-06-22T10:46:03;1.40;;;0.60;;
38479;SDS011;62333;51.980;5.934;2023-06-22T10:48:28;3.30;;;1.27;;
38479;SDS011;62333;51.980;5.934;2023-06-22T10:50:54;2.25;;;1.27;;
38479;SDS011;62333;51.980;5.934;2023-06-22T10:53:20;2.20;;;1.30;;
38479;SDS011;62333;51.980;5.934;2023-06-22T10:55:46;3.60;;;1.77;;
38479;SDS011;62333;51.980;5.934;2023-06-22T10:58:12;4.13;;;1.50;;
38479;SDS011;62333;51.980;5.934;2023-06-22T11:00:38;4.40;;;1.40;;
38479;SDS011;62333;51.980;5.934;2023-06-22T11:03:03;2.85;;;1.25;;
38479;SDS011;62333;51.980;5.934;2023-06-22T11:05:29;4.45;;;1.42;;
38479;SDS011;62333;51.980;5.934;2023-06-22T11:07:55;5.25;;;1.60;;
38479;SDS011;62333;51.980;5.934;2023-06-22T11:10:20;2.85;;;1.73;;
38479;SDS011;62333;51.980;5.934;2023-06-22T11:12:46;2.85;;;1.45;;
38479;SDS011;62333;51.980;5.934;2023-06-22T11:15:12;5.20;;;1.83;;
38479;SDS011;62333;51.980;5.934;2023-06-22T11:17:37;3.90;;;1.30;;
38479;SDS011;62333;51.980;5.934;2023-06-22T11:20:03;3.85;;;1.50;;
38479;SDS011;62333;51.980;5.934;2023-06-22T11:22:35;3.95;;;1.55;;
38479;SDS011;62333;51.980;5.934;2023-06-22T11:25:04;2.75;;;1.42;;
38479;SDS011;62333;51.980;5.934;2023-06-22T11:27:30;2.95;;;1.33;;
38479;SDS011;62333;51.980;5.934;2023-06-22T11:29:56;3.53;;;1.23;;
38479;SDS011;62333;51.980;5.934;2023-06-22T11:32:22;5.43;;;1.77;;
38479;SDS011;62333;51.980;5.934;2023-06-22T11:34:48;2.75;;;1.70;;
38479;SDS011;62333;51.980;5.934;2023-06-22T11:37:14;5.68;;;1.70;;
38479;SDS011;62333;51.980;5.934;2023-06-22T11:39:40;3.13;;;2.08;;
38479;SDS011;62333;51.980;5.934;2023-06-22T11:42:06;3.10;;;1.92;;
38479;SDS011;62333;51.980;5.934;2023-06-22T11:44:33;2.90;;;1.83;;
38479;SDS011;62333;51.980;5.934;2023-06-22T11:46:58;3.30;;;2.42;;
38479;SDS011;62333;51.980;5.934;2023-06-22T11:49:26;3.42;;;2.13;;
38479;SDS011;62333;51.980;5.934;2023-06-22T11:51:52;3.30;;;2.05;;
38479;SDS011;62333;51.980;5.934;2023-06-22T11:54:17;3.92;;;2.00;;
38479;SDS011;62333;51.980;5.934;2023-06-22T11:56:43;4.60;;;1.85;;
38479;SDS011;62333;51.980;5.934;2023-06-22T11:59:09;4.15;;;2.33;;
38479;SDS011;62333;51.980;5.934;2023-06-22T12:01:36;5.18;;;1.70;;
38479;SDS011;62333;51.980;5.934;2023-06-22T12:04:02;5.28;;;2.40;;
38479;SDS011;62333;51.980;5.934;2023-06-22T12:06:30;4.07;;;2.90;;
38479;SDS011;62333;51.980;5.934;2023-06-22T12:08:57;3.60;;;2.03;;
38479;SDS011;62333;51.980;5.934;2023-06-22T12:11:23;3.40;;;1.92;;
38479;SDS011;62333;51.980;5.934;2023-06-22T12:13:49;4.28;;;2.03;;
38479;SDS011;62333;51.980;5.934;2023-06-22T12:16:14;9.10;;;2.22;;
38479;SDS011;62333;51.980;5.934;2023-06-22T12:18:40;4.57;;;2.15;;
38479;SDS011;62333;51.980;5.934;2023-06-22T12:21:06;4.65;;;2.47;;
38479;SDS011;62333;51.980;5.934;2023-06-22T12:23:32;6.88;;;3.45;;
38479;SDS011;62333;51.980;5.934;2023-06-22T12:25:57;5.57;;;2.28;;
38479;SDS011;62333;51.980;5.934;2023-06-22T12:28:24;5.43;;;2.63;;
38479;SDS011;62333;51.980;5.934;2023-06-22T12:30:50;10.30;;;3.45;;
38479;SDS011;62333;51.980;5.934;2023-06-22T12:33:15;5.65;;;2.50;;
38479;SDS011;62333;51.980;5.934;2023-06-22T12:35:41;5.43;;;2.60;;
38479;SDS011;62333;51.980;5.934;2023-06-22T12:38:07;4.57;;;2.75;;
38479;SDS011;62333;51.980;5.934;2023-06-22T12:40:33;7.72;;;2.90;;
38479;SDS011;62333;51.980;5.934;2023-06-22T12:42:59;3.45;;;1.92;;
38479;SDS011;62333;51.980;5.934;2023-06-22T12:45:24;8.48;;;3.80;;
38479;SDS011;62333;51.980;5.934;2023-06-22T12:47:53;8.00;;;2.92;;
38479;SDS011;62333;51.980;5.934;2023-06-22T12:50:19;8.68;;;3.25;;
38479;SDS011;62333;51.980;5.934;2023-06-22T12:52:45;5.70;;;2.83;;
38479;SDS011;62333;51.980;5.934;2023-06-22T12:55:11;7.65;;;3.72;;
38479;SDS011;62333;51.980;5.934;2023-06-22T12:57:36;4.57;;;2.67;;
38479;SDS011;62333;51.980;5.934;2023-06-22T13:00:02;7.53;;;3.95;;
38479;SDS011;62333;51.980;5.934;2023-06-22T13:02:29;5.20;;;3.20;;
38479;SDS011;62333;51.980;5.934;2023-06-22T13:04:55;5.60;;;3.50;;
38479;SDS011;62333;51.980;5.934;2023-06-22T13:07:21;6.93;;;3.20;;
38479;SDS011;62333;51.980;5.934;2023-06-22T13:09:47;4.70;;;2.72;;
38479;SDS011;62333;51.980;5.934;2023-06-22T13:12:16;6.07;;;3.58;;
38479;SDS011;62333;51.980;5.934;2023-06-22T13:14:42;4.97;;;2.75;;
38479;SDS011;62333;51.980;5.934;2023-06-22T13:17:08;4.13;;;3.05;;
38479;SDS011;62333;51.980;5.934;2023-06-22T13:19:34;5.47;;;2.95;;
38479;SDS011;62333;51.980;5.934;2023-06-22T13:21:59;6.90;;;3.50;;
38479;SDS011;62333;51.980;5.934;2023-06-22T13:24:25;4.80;;;2.83;;
38479;SDS011;62333;51.980;5.934;2023-06-22T13:26:51;6.15;;;3.38;;
38479;SDS011;62333;51.980;5.934;2023-06-22T13:29:16;6.65;;;4.97;;
38479;SDS011;62333;51.980;5.934;2023-06-22T13:31:42;5.30;;;4.53;;
38479;SDS011;62333;51.980;5.934;2023-06-22T13:34:08;6.97;;;4.00;;
38479;SDS011;62333;51.980;5.934;2023-06-22T13:36:33;5.70;;;3.95;;
38479;SDS011;62333;51.980;5.934;2023-06-22T13:38:59;5.72;;;3.20;;
38479;SDS011;62333;51.980;5.934;2023-06-22T13:41:25;8.07;;;3.38;;
38479;SDS011;62333;51.980;5.934;2023-06-22T13:43:50;6.70;;;4.00;;
38479;SDS011;62333;51.980;5.934;2023-06-22T13:46:16;6.75;;;3.50;;
38479;SDS011;62333;51.980;5.934;2023-06-22T13:48:42;5.60;;;3.60;;
38479;SDS011;62333;51.980;5.934;2023-06-22T13:51:08;5.65;;;3.38;;
38479;SDS011;62333;51.980;5.934;2023-06-22T13:53:33;5.60;;;4.22;;
38479;SDS011;62333;51.980;5.934;2023-06-22T13:55:59;5.90;;;4.20;;
38479;SDS011;62333;51.980;5.934;2023-06-22T13:58:25;5.65;;;3.92;;
38479;SDS011;62333;51.980;5.934;2023-06-22T14:00:50;5.93;;;4.45;;
38479;SDS011;62333;51.980;5.934;2023-06-22T14:03:16;6.75;;;4.15;;
38479;SDS011;62333;51.980;5.934;2023-06-22T14:05:42;7.78;;;5.95;;
38479;SDS011;62333;51.980;5.934;2023-06-22T14:08:08;6.82;;;4.90;;
38479;SDS011;62333;51.980;5.934;2023-06-22T14:10:34;6.88;;;4.03;;
38479;SDS011;62333;51.980;5.934;2023-06-22T14:13:00;5.20;;;3.75;;
38479;SDS011;62333;51.980;5.934;2023-06-22T14:15:25;7.82;;;4.43;;
38479;SDS011;62333;51.980;5.934;2023-06-22T14:17:51;6.35;;;4.43;;
38479;SDS011;62333;51.980;5.934;2023-06-22T14:20:17;6.60;;;4.03;;
38479;SDS011;62333;51.980;5.934;2023-06-22T14:22:43;6.03;;;5.00;;
38479;SDS011;62333;51.980;5.934;2023-06-22T14:25:09;7.65;;;3.92;;
38479;SDS011;62333;51.980;5.934;2023-06-22T14:27:34;5.57;;;4.40;;
38479;SDS011;62333;51.980;5.934;2023-06-22T14:30:00;5.88;;;4.35;;
38479;SDS011;62333;51.980;5.934;2023-06-22T14:32:27;5.97;;;4.00;;
38479;SDS011;62333;51.980;5.934;2023-06-22T14:34:54;5.78;;;3.60;;
38479;SDS011;62333;51.980;5.934;2023-06-22T14:37:20;6.05;;;3.47;;
38479;SDS011;62333;51.980;5.934;2023-06-22T14:39:46;7.07;;;5.13;;
38479;SDS011;62333;51.980;5.934;2023-06-22T14:42:11;4.53;;;3.55;;
38479;SDS011;62333;51.980;5.934;2023-06-22T14:44:37;6.90;;;4.57;;
38479;SDS011;62333;51.980;5.934;2023-06-22T14:47:03;4.25;;;3.45;;
38479;SDS011;62333;51.980;5.934;2023-06-22T14:49:28;6.53;;;4.72;;
38479;SDS011;62333;51.980;5.934;2023-06-22T14:51:54;6.57;;;4.53;;
38479;SDS011;62333;51.980;5.934;2023-06-22T14:54:20;5.70;;;4.93;;
38479;SDS011;62333;51.980;5.934;2023-06-22T14:56:47;6.70;;;4.75;;
38479;SDS011;62333;51.980;5.934;2023-06-22T14:59:13;6.00;;;4.07;;